sensor_id;sensor_type;location;lat;lon;timestamp;temperature;humidity
74511;DHT22;62991;50.040;18.400;2023-03-01T00:02:10;2.20;51.30
74511;DHT22;62991;50.040;18.400;2023-03-01T00:05:11;2.30;51.00
74511;DHT22;62991;50.040;18.400;2023-03-01T00:08:12;2.10;51.50
74511;DHT22;62991;50.040;18.400;2023-03-01T00:14:21;2.10;51.70
74511;DHT22;62991;50.040;18.400;2023-03-01T00:17:22;2.10;51.60
74511;DHT22;62991;50.040;18.400;2023-03-01T00:20:23;1.90;52.10
74511;DHT22;62991;50.040;18.400;2023-03-01T00:23:24;1.90;52.20
74511;DHT22;62991;50.040;18.400;2023-03-01T00:26:26;1.80;52.10
74511;DHT22;62991;50.040;18.400;2023-03-01T00:29:26;1.80;52.10
74511;DHT22;62991;50.040;18.400;2023-03-01T00:32:27;1.60;52.60
74511;DHT22;62991;50.040;18.400;2023-03-01T00:35:28;1.40;53.40
74511;DHT22;62991;50.040;18.400;2023-03-01T00:38:29;1.40;53.50
74511;DHT22;62991;50.040;18.400;2023-03-01T00:41:30;1.40;53.40
74511;DHT22;62991;50.040;18.400;2023-03-01T00:44:31;1.40;53.50
74511;DHT22;62991;50.040;18.400;2023-03-01T00:47:31;1.50;53.40
74511;DHT22;62991;50.040;18.400;2023-03-01T00:50:32;1.30;53.80
74511;DHT22;62991;50.040;18.400;2023-03-01T00:53:34;1.20;54.30
74511;DHT22;62991;50.040;18.400;2023-03-01T00:56:34;1.10;54.70
74511;DHT22;62991;50.040;18.400;2023-03-01T00:59:35;1.00;54.80
74511;DHT22;62991;50.040;18.400;2023-03-01T01:02:36;1.10;54.90
74511;DHT22;62991;50.040;18.400;2023-03-01T01:05:37;1.00;55.00
74511;DHT22;62991;50.040;18.400;2023-03-01T01:08:38;1.20;54.60
74511;DHT22;62991;50.040;18.400;2023-03-01T01:11:38;1.30;54.40
74511;DHT22;62991;50.040;18.400;2023-03-01T01:14:39;1.40;54.00
74511;DHT22;62991;50.040;18.400;2023-03-01T01:17:40;1.40;54.10
74511;DHT22;62991;50.040;18.400;2023-03-01T01:20:41;1.40;54.00
74511;DHT22;62991;50.040;18.400;2023-03-01T01:23:43;1.40;54.00
74511;DHT22;62991;50.040;18.400;2023-03-01T01:26:45;1.40;54.00
74511;DHT22;62991;50.040;18.400;2023-03-01T01:29:45;1.50;53.80
74511;DHT22;62991;50.040;18.400;2023-03-01T01:32:46;1.50;53.70
74511;DHT22;62991;50.040;18.400;2023-03-01T01:35:47;1.70;53.30
74511;DHT22;62991;50.040;18.400;2023-03-01T01:38:48;1.70;53.10
74511;DHT22;62991;50.040;18.400;2023-03-01T01:41:48;1.70;53.00
74511;DHT22;62991;50.040;18.400;2023-03-01T01:45:51;1.70;53.10
74511;DHT22;62991;50.040;18.400;2023-03-01T01:49:04;1.70;53.00
74511;DHT22;62991;50.040;18.400;2023-03-01T01:52:18;1.60;53.60
74511;DHT22;62991;50.040;18.400;2023-03-01T01:55:24;1.50;53.70
74511;DHT22;62991;50.040;18.400;2023-03-01T01:58:29;1.60;53.40
74511;DHT22;62991;50.040;18.400;2023-03-01T02:01:30;1.70;53.20
74511;DHT22;62991;50.040;18.400;2023-03-01T02:04:32;1.70;53.00
74511;DHT22;62991;50.040;18.400;2023-03-01T02:07:33;1.70;53.20
74511;DHT22;62991;50.040;18.400;2023-03-01T02:10:34;1.60;53.10
74511;DHT22;62991;50.040;18.400;2023-03-01T02:13:36;1.60;53.10
74511;DHT22;62991;50.040;18.400;2023-03-01T02:16:37;1.70;53.00
74511;DHT22;62991;50.040;18.400;2023-03-01T02:23:16;1.80;52.90
74511;DHT22;62991;50.040;18.400;2023-03-01T02:26:24;1.70;52.90
74511;DHT22;62991;50.040;18.400;2023-03-01T02:29:27;1.70;53.00
74511;DHT22;62991;50.040;18.400;2023-03-01T02:32:29;1.60;53.30
74511;DHT22;62991;50.040;18.400;2023-03-01T02:35:33;1.70;53.10
74511;DHT22;62991;50.040;18.400;2023-03-01T02:38:35;1.70;53.00
74511;DHT22;62991;50.040;18.400;2023-03-01T02:41:38;1.80;52.80
74511;DHT22;62991;50.040;18.400;2023-03-01T02:44:39;1.80;52.90
74511;DHT22;62991;50.040;18.400;2023-03-01T02:47:40;1.90;52.50
74511;DHT22;62991;50.040;18.400;2023-03-01T02:57:18;2.00;52.30
74511;DHT22;62991;50.040;18.400;2023-03-01T03:00:23;2.00;52.00
74511;DHT22;62991;50.040;18.400;2023-03-01T03:03:25;2.00;51.80
74511;DHT22;62991;50.040;18.400;2023-03-01T03:06:26;2.00;51.90
74511;DHT22;62991;50.040;18.400;2023-03-01T03:09:26;2.10;51.90
74511;DHT22;62991;50.040;18.400;2023-03-01T03:12:27;2.10;51.80
74511;DHT22;62991;50.040;18.400;2023-03-01T03:15:28;2.10;51.80
74511;DHT22;62991;50.040;18.400;2023-03-01T03:18:29;2.10;51.60
74511;DHT22;62991;50.040;18.400;2023-03-01T03:21:33;2.10;51.60
74511;DHT22;62991;50.040;18.400;2023-03-01T03:24:34;2.10;51.60
74511;DHT22;62991;50.040;18.400;2023-03-01T03:27:39;2.10;51.50
74511;DHT22;62991;50.040;18.400;2023-03-01T03:30:41;2.10;51.50
74511;DHT22;62991;50.040;18.400;2023-03-01T03:33:42;2.00;51.60
74511;DHT22;62991;50.040;18.400;2023-03-01T03:36:43;2.10;51.50
74511;DHT22;62991;50.040;18.400;2023-03-01T03:39:43;2.10;51.60
74511;DHT22;62991;50.040;18.400;2023-03-01T03:42:44;2.10;51.60
74511;DHT22;62991;50.040;18.400;2023-03-01T03:45:46;2.00;51.90
74511;DHT22;62991;50.040;18.400;2023-03-01T03:48:47;2.00;52.20
74511;DHT22;62991;50.040;18.400;2023-03-01T03:51:47;1.90;52.50
74511;DHT22;62991;50.040;18.400;2023-03-01T03:54:48;1.80;52.90
74511;DHT22;62991;50.040;18.400;2023-03-01T03:57:49;1.80;53.00
74511;DHT22;62991;50.040;18.400;2023-03-01T04:00:56;1.80;53.10
74511;DHT22;62991;50.040;18.400;2023-03-01T04:03:57;1.60;53.50
74511;DHT22;62991;50.040;18.400;2023-03-01T04:07:04;1.50;53.90
74511;DHT22;62991;50.040;18.400;2023-03-01T04:10:07;1.40;54.10
74511;DHT22;62991;50.040;18.400;2023-03-01T04:13:12;1.40;54.30
74511;DHT22;62991;50.040;18.400;2023-03-01T04:16:12;1.40;54.30
74511;DHT22;62991;50.040;18.400;2023-03-01T04:19:13;1.30;54.60
74511;DHT22;62991;50.040;18.400;2023-03-01T04:22:15;1.20;54.80
74511;DHT22;62991;50.040;18.400;2023-03-01T04:25:19;1.10;55.40
74511;DHT22;62991;50.040;18.400;2023-03-01T04:28:46;1.20;54.90
74511;DHT22;62991;50.040;18.400;2023-03-01T04:31:48;1.10;55.20
74511;DHT22;62991;50.040;18.400;2023-03-01T04:34:49;1.10;55.10
74511;DHT22;62991;50.040;18.400;2023-03-01T04:37:50;1.20;55.00
74511;DHT22;62991;50.040;18.400;2023-03-01T04:40:51;1.20;55.00
74511;DHT22;62991;50.040;18.400;2023-03-01T04:43:52;1.20;55.10
74511;DHT22;62991;50.040;18.400;2023-03-01T04:46:52;1.20;54.90
74511;DHT22;62991;50.040;18.400;2023-03-01T04:49:53;1.20;54.90
74511;DHT22;62991;50.040;18.400;2023-03-01T04:52:54;1.10;55.00
74511;DHT22;62991;50.040;18.400;2023-03-01T04:55:59;1.00;55.50
74511;DHT22;62991;50.040;18.400;2023-03-01T04:58:59;1.00;55.40
74511;DHT22;62991;50.040;18.400;2023-03-01T05:02:01;1.00;55.30
74511;DHT22;62991;50.040;18.400;2023-03-01T05:05:01;1.00;55.30
74511;DHT22;62991;50.040;18.400;2023-03-01T05:08:07;1.10;55.20
74511;DHT22;62991;50.040;18.400;2023-03-01T05:11:08;1.10;54.90
74511;DHT22;62991;50.040;18.400;2023-03-01T05:14:09;1.10;54.90
74511;DHT22;62991;50.040;18.400;2023-03-01T05:17:10;1.20;54.80
74511;DHT22;62991;50.040;18.400;2023-03-01T05:20:11;1.10;54.90
74511;DHT22;62991;50.040;18.400;2023-03-01T05:23:12;1.10;54.80
74511;DHT22;62991;50.040;18.400;2023-03-01T05:26:13;1.10;54.70
74511;DHT22;62991;50.040;18.400;2023-03-01T05:29:14;1.00;55.00
74511;DHT22;62991;50.040;18.400;2023-03-01T05:32:14;1.00;54.90
74511;DHT22;62991;50.040;18.400;2023-03-01T05:35:17;1.10;54.80
74511;DHT22;62991;50.040;18.400;2023-03-01T05:38:18;1.20;54.60
74511;DHT22;62991;50.040;18.400;2023-03-01T05:41:19;1.30;54.20
74511;DHT22;62991;50.040;18.400;2023-03-01T05:44:20;1.40;54.00
74511;DHT22;62991;50.040;18.400;2023-03-01T05:47:21;1.40;54.00
74511;DHT22;62991;50.040;18.400;2023-03-01T05:50:27;1.50;53.80
74511;DHT22;62991;50.040;18.400;2023-03-01T05:53:28;1.60;53.50
74511;DHT22;62991;50.040;18.400;2023-03-01T05:56:29;1.70;53.50
74511;DHT22;62991;50.040;18.400;2023-03-01T05:59:29;1.70;53.40
74511;DHT22;62991;50.040;18.400;2023-03-01T06:02:30;1.80;53.40
74511;DHT22;62991;50.040;18.400;2023-03-01T06:05:31;1.80;53.30
74511;DHT22;62991;50.040;18.400;2023-03-01T06:08:32;1.80;53.40
74511;DHT22;62991;50.040;18.400;2023-03-01T06:11:36;1.90;53.30
74511;DHT22;62991;50.040;18.400;2023-03-01T06:14:37;1.80;53.40
74511;DHT22;62991;50.040;18.400;2023-03-01T06:17:40;1.90;53.30
74511;DHT22;62991;50.040;18.400;2023-03-01T06:20:41;1.80;53.30
74511;DHT22;62991;50.040;18.400;2023-03-01T06:23:42;1.60;53.90
74511;DHT22;62991;50.040;18.400;2023-03-01T06:26:42;1.60;54.20
74511;DHT22;62991;50.040;18.400;2023-03-01T06:29:43;1.60;54.20
74511;DHT22;62991;50.040;18.400;2023-03-01T06:32:44;1.60;54.40
74511;DHT22;62991;50.040;18.400;2023-03-01T06:35:44;1.70;54.30
74511;DHT22;62991;50.040;18.400;2023-03-01T06:38:45;1.80;53.80
74511;DHT22;62991;50.040;18.400;2023-03-01T06:41:46;1.90;53.50
74511;DHT22;62991;50.040;18.400;2023-03-01T06:44:46;1.80;54.00
74511;DHT22;62991;50.040;18.400;2023-03-01T06:47:48;1.60;55.50
74511;DHT22;62991;50.040;18.400;2023-03-01T06:50:48;1.80;54.90
74511;DHT22;62991;50.040;18.400;2023-03-01T06:53:49;1.90;55.10
74511;DHT22;62991;50.040;18.400;2023-03-01T06:56:50;1.80;54.90
74511;DHT22;62991;50.040;18.400;2023-03-01T06:59:51;1.90;54.70
74511;DHT22;62991;50.040;18.400;2023-03-01T07:02:52;1.90;55.20
74511;DHT22;62991;50.040;18.400;2023-03-01T07:05:53;1.70;55.60
74511;DHT22;62991;50.040;18.400;2023-03-01T07:08:53;1.80;55.20
74511;DHT22;62991;50.040;18.400;2023-03-01T07:11:54;2.00;55.30
74511;DHT22;62991;50.040;18.400;2023-03-01T07:14:56;2.20;54.60
74511;DHT22;62991;50.040;18.400;2023-03-01T07:17:57;2.30;54.10
74511;DHT22;62991;50.040;18.400;2023-03-01T07:20:57;2.30;53.80
74511;DHT22;62991;50.040;18.400;2023-03-01T07:23:58;2.40;53.90
74511;DHT22;62991;50.040;18.400;2023-03-01T07:26:58;2.50;54.30
74511;DHT22;62991;50.040;18.400;2023-03-01T07:29:59;2.50;53.80
74511;DHT22;62991;50.040;18.400;2023-03-01T07:33:00;2.70;53.90
74511;DHT22;62991;50.040;18.400;2023-03-01T07:36:03;2.70;53.00
74511;DHT22;62991;50.040;18.400;2023-03-01T07:39:04;2.80;53.10
74511;DHT22;62991;50.040;18.400;2023-03-01T07:42:06;2.90;52.80
74511;DHT22;62991;50.040;18.400;2023-03-01T07:45:07;2.90;52.80
74511;DHT22;62991;50.040;18.400;2023-03-01T07:48:08;2.90;53.00
74511;DHT22;62991;50.040;18.400;2023-03-01T07:51:10;3.00;52.60
74511;DHT22;62991;50.040;18.400;2023-03-01T07:54:11;3.20;52.00
74511;DHT22;62991;50.040;18.400;2023-03-01T07:57:11;3.40;51.60
74511;DHT22;62991;50.040;18.400;2023-03-01T08:00:12;3.30;51.50
74511;DHT22;62991;50.040;18.400;2023-03-01T08:03:13;3.20;51.70
74511;DHT22;62991;50.040;18.400;2023-03-01T08:06:16;3.30;51.90
74511;DHT22;62991;50.040;18.400;2023-03-01T08:09:17;3.50;51.50
74511;DHT22;62991;50.040;18.400;2023-03-01T08:12:18;3.70;51.20
74511;DHT22;62991;50.040;18.400;2023-03-01T08:15:18;3.80;50.90
74511;DHT22;62991;50.040;18.400;2023-03-01T08:18:20;3.80;50.80
74511;DHT22;62991;50.040;18.400;2023-03-01T08:21:21;3.80;50.80
74511;DHT22;62991;50.040;18.400;2023-03-01T08:24:22;4.00;50.00
74511;DHT22;62991;50.040;18.400;2023-03-01T08:27:23;4.00;49.40
74511;DHT22;62991;50.040;18.400;2023-03-01T08:30:24;4.20;49.20
74511;DHT22;62991;50.040;18.400;2023-03-01T08:33:24;4.40;49.00
74511;DHT22;62991;50.040;18.400;2023-03-01T08:36:27;4.60;48.80
74511;DHT22;62991;50.040;18.400;2023-03-01T08:39:28;4.80;48.30
74511;DHT22;62991;50.040;18.400;2023-03-01T08:42:29;4.90;48.10
74511;DHT22;62991;50.040;18.400;2023-03-01T08:45:30;5.10;47.50
74511;DHT22;62991;50.040;18.400;2023-03-01T08:48:30;5.20;47.20
74511;DHT22;62991;50.040;18.400;2023-03-01T08:51:31;5.10;47.70
74511;DHT22;62991;50.040;18.400;2023-03-01T08:54:36;5.00;47.90
74511;DHT22;62991;50.040;18.400;2023-03-01T08:57:37;5.00;47.70
74511;DHT22;62991;50.040;18.400;2023-03-01T09:00:38;5.30;47.40
74511;DHT22;62991;50.040;18.400;2023-03-01T09:03:40;5.30;46.60
74511;DHT22;62991;50.040;18.400;2023-03-01T09:06:41;5.20;46.10
74511;DHT22;62991;50.040;18.400;2023-03-01T09:09:42;5.10;46.00
74511;DHT22;62991;50.040;18.400;2023-03-01T09:12:43;5.30;46.50
74511;DHT22;62991;50.040;18.400;2023-03-01T09:15:43;5.50;45.40
74511;DHT22;62991;50.040;18.400;2023-03-01T09:18:45;5.50;47.20
74511;DHT22;62991;50.040;18.400;2023-03-01T09:21:46;5.40;48.50
74511;DHT22;62991;50.040;18.400;2023-03-01T09:24:52;5.50;48.60
74511;DHT22;62991;50.040;18.400;2023-03-01T09:27:54;5.80;46.30
74511;DHT22;62991;50.040;18.400;2023-03-01T09:30:58;6.00;45.80
74511;DHT22;62991;50.040;18.400;2023-03-01T09:33:59;6.20;45.40
74511;DHT22;62991;50.040;18.400;2023-03-01T09:37:00;6.20;44.20
74511;DHT22;62991;50.040;18.400;2023-03-01T09:40:08;6.10;45.00
74511;DHT22;62991;50.040;18.400;2023-03-01T09:46:41;6.20;45.40
74511;DHT22;62991;50.040;18.400;2023-03-01T09:49:47;6.30;46.50
74511;DHT22;62991;50.040;18.400;2023-03-01T09:53:04;6.20;46.70
74511;DHT22;62991;50.040;18.400;2023-03-01T09:59:26;6.70;45.80
74511;DHT22;62991;50.040;18.400;2023-03-01T10:02:33;6.90;44.80
74511;DHT22;62991;50.040;18.400;2023-03-01T10:06:11;6.70;44.50
74511;DHT22;62991;50.040;18.400;2023-03-01T10:09:16;6.50;44.20
74511;DHT22;62991;50.040;18.400;2023-03-01T10:12:27;6.40;44.40
74511;DHT22;62991;50.040;18.400;2023-03-01T10:15:38;6.60;46.00
74511;DHT22;62991;50.040;18.400;2023-03-01T10:18:41;7.00;44.80
74511;DHT22;62991;50.040;18.400;2023-03-01T10:21:45;7.00;44.50
74511;DHT22;62991;50.040;18.400;2023-03-01T10:24:46;7.50;43.10
74511;DHT22;62991;50.040;18.400;2023-03-01T10:27:56;7.60;42.80
74511;DHT22;62991;50.040;18.400;2023-03-01T10:31:00;7.10;42.40
74511;DHT22;62991;50.040;18.400;2023-03-01T10:34:01;7.30;42.70
74511;DHT22;62991;50.040;18.400;2023-03-01T10:37:16;7.20;43.10
74511;DHT22;62991;50.040;18.400;2023-03-01T10:40:18;7.40;43.10
74511;DHT22;62991;50.040;18.400;2023-03-01T10:43:19;7.40;43.50
74511;DHT22;62991;50.040;18.400;2023-03-01T10:49:29;8.50;41.60
74511;DHT22;62991;50.040;18.400;2023-03-01T10:52:31;8.60;42.20
74511;DHT22;62991;50.040;18.400;2023-03-01T10:55:38;8.70;41.80
74511;DHT22;62991;50.040;18.400;2023-03-01T10:58:56;8.90;42.00
74511;DHT22;62991;50.040;18.400;2023-03-01T11:02:29;8.70;41.60
74511;DHT22;62991;50.040;18.400;2023-03-01T11:05:30;8.30;40.50
74511;DHT22;62991;50.040;18.400;2023-03-01T11:11:42;8.60;40.80
74511;DHT22;62991;50.040;18.400;2023-03-01T11:14:48;8.80;41.20
74511;DHT22;62991;50.040;18.400;2023-03-01T11:17:49;9.40;40.30
74511;DHT22;62991;50.040;18.400;2023-03-01T11:20:53;10.00;39.10
74511;DHT22;62991;50.040;18.400;2023-03-01T11:23:57;10.30;38.30
74511;DHT22;62991;50.040;18.400;2023-03-01T11:27:02;10.60;38.80
74511;DHT22;62991;50.040;18.400;2023-03-01T11:30:13;10.70;37.40
74511;DHT22;62991;50.040;18.400;2023-03-01T11:33:44;10.10;37.70
74511;DHT22;62991;50.040;18.400;2023-03-01T11:40:10;9.90;38.60
74511;DHT22;62991;50.040;18.400;2023-03-01T11:43:37;10.50;37.60
74511;DHT22;62991;50.040;18.400;2023-03-01T11:50:16;10.90;37.70
74511;DHT22;62991;50.040;18.400;2023-03-01T11:53:55;10.80;37.50
74511;DHT22;62991;50.040;18.400;2023-03-01T12:04:20;11.50;37.60
74511;DHT22;62991;50.040;18.400;2023-03-01T12:08:27;12.40;36.50
74511;DHT22;62991;50.040;18.400;2023-03-01T12:24:29;12.50;34.50
74511;DHT22;62991;50.040;18.400;2023-03-01T12:34:27;25.40;23.20
74511;DHT22;62991;50.040;18.400;2023-03-01T12:37:39;28.10;22.10
74511;DHT22;62991;50.040;18.400;2023-03-01T12:40:53;32.60;19.80
74511;DHT22;62991;50.040;18.400;2023-03-01T12:50:55;33.30;18.40
74511;DHT22;62991;50.040;18.400;2023-03-01T12:54:01;36.00;18.40
74511;DHT22;62991;50.040;18.400;2023-03-01T12:57:19;40.50;17.00
74511;DHT22;62991;50.040;18.400;2023-03-01T13:00:45;40.70;16.20
74511;DHT22;62991;50.040;18.400;2023-03-01T13:10:50;41.20;16.10
74511;DHT22;62991;50.040;18.400;2023-03-01T13:13:55;40.10;16.20
74511;DHT22;62991;50.040;18.400;2023-03-01T13:17:40;40.30;16.20
74511;DHT22;62991;50.040;18.400;2023-03-01T13:23:47;40.40;16.50
74511;DHT22;62991;50.040;18.400;2023-03-01T13:39:33;37.20;17.00
74511;DHT22;62991;50.040;18.400;2023-03-01T13:42:42;36.70;16.80
74511;DHT22;62991;50.040;18.400;2023-03-01T13:45:43;36.60;16.90
74511;DHT22;62991;50.040;18.400;2023-03-01T13:48:49;36.90;17.00
74511;DHT22;62991;50.040;18.400;2023-03-01T13:51:51;36.00;16.70
74511;DHT22;62991;50.040;18.400;2023-03-01T13:54:52;35.90;17.50
74511;DHT22;62991;50.040;18.400;2023-03-01T13:57:57;38.80;17.70
74511;DHT22;62991;50.040;18.400;2023-03-01T14:04:02;37.00;17.20
74511;DHT22;62991;50.040;18.400;2023-03-01T14:10:17;38.70;16.50
74511;DHT22;62991;50.040;18.400;2023-03-01T14:20:01;34.00;18.30
74511;DHT22;62991;50.040;18.400;2023-03-01T14:23:13;33.00;18.50
74511;DHT22;62991;50.040;18.400;2023-03-01T14:26:21;30.10;19.30
74511;DHT22;62991;50.040;18.400;2023-03-01T14:29:37;28.30;20.30
74511;DHT22;62991;50.040;18.400;2023-03-01T14:32:38;27.10;21.00
74511;DHT22;62991;50.040;18.400;2023-03-01T14:35:39;26.40;21.60
74511;DHT22;62991;50.040;18.400;2023-03-01T14:38:46;25.20;21.50
74511;DHT22;62991;50.040;18.400;2023-03-01T14:41:47;23.90;22.80
74511;DHT22;62991;50.040;18.400;2023-03-01T14:44:50;22.90;23.20
74511;DHT22;62991;50.040;18.400;2023-03-01T14:47:52;22.20;23.60
74511;DHT22;62991;50.040;18.400;2023-03-01T14:50:53;22.00;23.90
74511;DHT22;62991;50.040;18.400;2023-03-01T14:53:54;20.40;24.70
74511;DHT22;62991;50.040;18.400;2023-03-01T14:56:59;19.10;25.70
74511;DHT22;62991;50.040;18.400;2023-03-01T15:00:02;18.10;26.90
74511;DHT22;62991;50.040;18.400;2023-03-01T15:03:24;17.60;27.30
74511;DHT22;62991;50.040;18.400;2023-03-01T15:06:25;17.60;27.20
74511;DHT22;62991;50.040;18.400;2023-03-01T15:09:26;17.50;27.50
74511;DHT22;62991;50.040;18.400;2023-03-01T15:15:36;16.30;28.60
74511;DHT22;62991;50.040;18.400;2023-03-01T15:18:46;15.50;29.50
74511;DHT22;62991;50.040;18.400;2023-03-01T15:21:49;15.80;29.40
74511;DHT22;62991;50.040;18.400;2023-03-01T15:24:50;15.20;29.80
74511;DHT22;62991;50.040;18.400;2023-03-01T15:27:52;14.90;29.90
74511;DHT22;62991;50.040;18.400;2023-03-01T15:30:57;14.50;30.30
74511;DHT22;62991;50.040;18.400;2023-03-01T15:34:08;14.10;31.20
74511;DHT22;62991;50.040;18.400;2023-03-01T15:40:49;14.30;31.30
74511;DHT22;62991;50.040;18.400;2023-03-01T15:43:50;13.70;31.30
74511;DHT22;62991;50.040;18.400;2023-03-01T15:46:54;13.20;32.10
74511;DHT22;62991;50.040;18.400;2023-03-01T15:49:55;12.70;32.70
74511;DHT22;62991;50.040;18.400;2023-03-01T15:52:58;12.50;33.40
74511;DHT22;62991;50.040;18.400;2023-03-01T15:55:59;12.40;33.10
74511;DHT22;62991;50.040;18.400;2023-03-01T15:59:02;12.20;33.20
74511;DHT22;62991;50.040;18.400;2023-03-01T16:02:09;12.10;33.50
74511;DHT22;62991;50.040;18.400;2023-03-01T16:05:32;11.70;33.90
74511;DHT22;62991;50.040;18.400;2023-03-01T16:08:32;11.20;34.70
74511;DHT22;62991;50.040;18.400;2023-03-01T16:11:34;11.00;35.00
74511;DHT22;62991;50.040;18.400;2023-03-01T16:14:37;10.60;35.70
74511;DHT22;62991;50.040;18.400;2023-03-01T16:17:37;10.30;36.00
74511;DHT22;62991;50.040;18.400;2023-03-01T16:20:38;10.10;36.50
74511;DHT22;62991;50.040;18.400;2023-03-01T16:23:39;9.80;37.10
74511;DHT22;62991;50.040;18.400;2023-03-01T16:26:39;9.80;37.60
74511;DHT22;62991;50.040;18.400;2023-03-01T16:29:40;9.60;38.00
74511;DHT22;62991;50.040;18.400;2023-03-01T16:32:42;9.30;38.30
74511;DHT22;62991;50.040;18.400;2023-03-01T16:35:43;9.10;38.60
74511;DHT22;62991;50.040;18.400;2023-03-01T16:38:44;8.90;39.00
74511;DHT22;62991;50.040;18.400;2023-03-01T16:41:45;9.00;38.90
74511;DHT22;62991;50.040;18.400;2023-03-01T16:44:46;8.90;38.90
74511;DHT22;62991;50.040;18.400;2023-03-01T16:47:46;8.90;38.80
74511;DHT22;62991;50.040;18.400;2023-03-01T16:50:58;8.70;39.10
74511;DHT22;62991;50.040;18.400;2023-03-01T16:54:01;8.60;39.10
74511;DHT22;62991;50.040;18.400;2023-03-01T16:57:04;8.70;38.90
74511;DHT22;62991;50.040;18.400;2023-03-01T17:00:06;8.50;39.00
74511;DHT22;62991;50.040;18.400;2023-03-01T17:03:09;8.10;39.60
74511;DHT22;62991;50.040;18.400;2023-03-01T17:06:13;8.00;39.90
74511;DHT22;62991;50.040;18.400;2023-03-01T17:09:14;7.80;40.10
74511;DHT22;62991;50.040;18.400;2023-03-01T17:12:17;7.60;40.60
74511;DHT22;62991;50.040;18.400;2023-03-01T17:15:17;7.30;41.00
74511;DHT22;62991;50.040;18.400;2023-03-01T17:18:18;7.20;40.70
74511;DHT22;62991;50.040;18.400;2023-03-01T17:21:19;7.10;40.70
74511;DHT22;62991;50.040;18.400;2023-03-01T17:24:20;7.10;40.70
74511;DHT22;62991;50.040;18.400;2023-03-01T17:27:20;7.00;41.00
74511;DHT22;62991;50.040;18.400;2023-03-01T17:30:21;6.70;41.10
74511;DHT22;62991;50.040;18.400;2023-03-01T17:33:22;6.70;41.20
74511;DHT22;62991;50.040;18.400;2023-03-01T17:36:22;6.50;41.10
74511;DHT22;62991;50.040;18.400;2023-03-01T17:39:23;6.50;41.00
74511;DHT22;62991;50.040;18.400;2023-03-01T17:42:30;6.40;41.10
74511;DHT22;62991;50.040;18.400;2023-03-01T17:45:30;6.20;41.20
74511;DHT22;62991;50.040;18.400;2023-03-01T17:48:31;6.20;41.20
74511;DHT22;62991;50.040;18.400;2023-03-01T17:51:32;6.20;40.60
74511;DHT22;62991;50.040;18.400;2023-03-01T17:54:32;6.00;40.90
74511;DHT22;62991;50.040;18.400;2023-03-01T17:57:33;6.00;40.60
74511;DHT22;62991;50.040;18.400;2023-03-01T18:00:35;6.00;40.50
74511;DHT22;62991;50.040;18.400;2023-03-01T18:03:36;5.90;40.60
74511;DHT22;62991;50.040;18.400;2023-03-01T18:06:36;5.80;40.50
74511;DHT22;62991;50.040;18.400;2023-03-01T18:09:38;5.90;40.00
74511;DHT22;62991;50.040;18.400;2023-03-01T18:12:39;5.90;40.40
74511;DHT22;62991;50.040;18.400;2023-03-01T18:15:39;5.80;40.40
74511;DHT22;62991;50.040;18.400;2023-03-01T18:18:41;5.80;40.10
74511;DHT22;62991;50.040;18.400;2023-03-01T18:21:41;5.70;40.00
74511;DHT22;62991;50.040;18.400;2023-03-01T18:24:43;5.60;40.70
74511;DHT22;62991;50.040;18.400;2023-03-01T18:27:44;5.60;41.30
74511;DHT22;62991;50.040;18.400;2023-03-01T18:30:45;5.50;41.50
74511;DHT22;62991;50.040;18.400;2023-03-01T18:33:46;5.50;41.40
74511;DHT22;62991;50.040;18.400;2023-03-01T18:36:47;5.30;41.70
74511;DHT22;62991;50.040;18.400;2023-03-01T18:39:51;5.30;42.10
74511;DHT22;62991;50.040;18.400;2023-03-01T18:42:52;5.30;42.30
74511;DHT22;62991;50.040;18.400;2023-03-01T18:45:57;5.20;42.70
74511;DHT22;62991;50.040;18.400;2023-03-01T18:48:58;5.20;43.00
74511;DHT22;62991;50.040;18.400;2023-03-01T18:51:58;5.30;42.90
74511;DHT22;62991;50.040;18.400;2023-03-01T18:54:59;5.20;43.50
74511;DHT22;62991;50.040;18.400;2023-03-01T18:58:00;5.00;43.90
74511;DHT22;62991;50.040;18.400;2023-03-01T19:01:00;5.00;44.50
74511;DHT22;62991;50.040;18.400;2023-03-01T19:04:03;4.80;44.80
74511;DHT22;62991;50.040;18.400;2023-03-01T19:07:04;4.80;44.70
74511;DHT22;62991;50.040;18.400;2023-03-01T19:10:06;4.80;45.00
74511;DHT22;62991;50.040;18.400;2023-03-01T19:13:07;4.90;44.80
74511;DHT22;62991;50.040;18.400;2023-03-01T19:16:09;4.90;44.90
74511;DHT22;62991;50.040;18.400;2023-03-01T19:19:10;4.80;45.00
74511;DHT22;62991;50.040;18.400;2023-03-01T19:22:11;4.70;45.40
74511;DHT22;62991;50.040;18.400;2023-03-01T19:25:12;4.60;45.70
74511;DHT22;62991;50.040;18.400;2023-03-01T19:28:12;4.50;45.80
74511;DHT22;62991;50.040;18.400;2023-03-01T19:31:32;4.70;45.80
74511;DHT22;62991;50.040;18.400;2023-03-01T19:34:33;4.70;45.80
74511;DHT22;62991;50.040;18.400;2023-03-01T19:37:35;4.60;45.90
74511;DHT22;62991;50.040;18.400;2023-03-01T19:40:35;4.60;46.00
74511;DHT22;62991;50.040;18.400;2023-03-01T19:43:36;4.60;46.10
74511;DHT22;62991;50.040;18.400;2023-03-01T19:46:37;4.30;46.60
74511;DHT22;62991;50.040;18.400;2023-03-01T19:49:38;4.30;46.90
74511;DHT22;62991;50.040;18.400;2023-03-01T19:52:39;4.30;47.20
74511;DHT22;62991;50.040;18.400;2023-03-01T19:55:40;4.30;47.50
74511;DHT22;62991;50.040;18.400;2023-03-01T19:58:41;4.30;47.20
74511;DHT22;62991;50.040;18.400;2023-03-01T20:01:44;4.30;47.10
74511;DHT22;62991;50.040;18.400;2023-03-01T20:04:44;4.40;47.20
74511;DHT22;62991;50.040;18.400;2023-03-01T20:07:45;4.40;47.00
74511;DHT22;62991;50.040;18.400;2023-03-01T20:10:46;4.50;46.70
74511;DHT22;62991;50.040;18.400;2023-03-01T20:13:47;4.50;46.90
74511;DHT22;62991;50.040;18.400;2023-03-01T20:16:48;4.60;46.40
74511;DHT22;62991;50.040;18.400;2023-03-01T20:19:48;4.70;46.20
74511;DHT22;62991;50.040;18.400;2023-03-01T20:22:49;4.80;45.80
74511;DHT22;62991;50.040;18.400;2023-03-01T20:25:50;4.90;45.40
74511;DHT22;62991;50.040;18.400;2023-03-01T20:28:53;4.90;45.30
74511;DHT22;62991;50.040;18.400;2023-03-01T20:31:54;4.90;45.10
74511;DHT22;62991;50.040;18.400;2023-03-01T20:34:56;4.90;45.20
74511;DHT22;62991;50.040;18.400;2023-03-01T20:37:57;4.90;45.20
74511;DHT22;62991;50.040;18.400;2023-03-01T20:41:06;4.90;45.30
74511;DHT22;62991;50.040;18.400;2023-03-01T20:44:07;4.90;45.20
74511;DHT22;62991;50.040;18.400;2023-03-01T20:47:13;4.90;45.00
74511;DHT22;62991;50.040;18.400;2023-03-01T20:50:14;4.80;44.90
74511;DHT22;62991;50.040;18.400;2023-03-01T20:53:15;4.90;44.70
74511;DHT22;62991;50.040;18.400;2023-03-01T20:56:17;4.90;44.70
74511;DHT22;62991;50.040;18.400;2023-03-01T20:59:18;4.80;44.60
74511;DHT22;62991;50.040;18.400;2023-03-01T21:02:19;4.90;44.40
74511;DHT22;62991;50.040;18.400;2023-03-01T21:05:20;4.90;44.40